Tsogt-Ovoo, Mongolia
Current Conditions -  °F | °C
As of 9:30 AM on Wednesday 22 Oct 2014 (Local Time) from ZMUB Reporting Station
Broken Clouds Broken Clouds  
Wind Chill: 32°   Ceiling: 25000
Heat Index: 32°   Visibility: 5mi
Dew Point: 19°   Wind: 0mph
Humidity: 60%   Direction: NA
Pressure: 29.94"   Gusts: NA
Location:  44.42°N, 105.32°E
Report Text: ZMUB 220130Z 00000MPS 8000NW BKN250 M00/M07 Q1014 NOSIG RMK QFE653.8 56 NW MO
Loading
Personal Weather Stations






























Interactive Weather Map
Tropical Storm Tracking
New forecast layout! Learn more

10-Day Weather Forecast

Advertisements
Track Severe Weather on mobile